createdAt,value
2018-05-26T00:01:29.507Z,54.59
2018-05-26T00:03:59.837Z,54.65
2018-05-26T00:06:36.421Z,54.48
2018-05-26T00:09:08.580Z,54.30
2018-05-26T00:11:45.980Z,54.28
2018-05-26T00:14:16.969Z,54.25
2018-05-26T00:16:47.850Z,54.73
2018-05-26T00:19:18.863Z,54.73
2018-05-26T00:21:50.056Z,54.84
2018-05-26T00:24:28.518Z,54.84
2018-05-26T00:27:00.300Z,54.63
2018-05-26T00:29:46.936Z,54.61
2018-05-26T00:32:19.751Z,54.79
2018-05-26T00:34:51.389Z,54.74
2018-05-26T00:37:21.879Z,54.73
2018-05-26T00:39:52.348Z,54.73
2018-05-26T00:42:25.350Z,54.85
2018-05-26T00:44:55.860Z,54.75
2018-05-26T00:50:05.830Z,55.11
2018-05-26T00:52:36.189Z,54.83
2018-05-26T00:55:07.558Z,55.13
2018-05-26T00:57:38.524Z,55.06
2018-05-26T01:00:10.189Z,55.14
2018-05-26T01:02:47.873Z,55.72
2018-05-26T01:05:20.631Z,55.36
2018-05-26T01:07:51.476Z,55.51
2018-05-26T01:10:22.137Z,55.99
2018-05-26T01:12:54.727Z,56.33
2018-05-26T01:15:44.608Z,56.01
2018-05-26T01:18:17.761Z,55.82
2018-05-26T01:20:48.696Z,55.59
2018-05-26T01:23:26.520Z,55.99
2018-05-26T01:26:12.410Z,56.08
2018-05-26T01:28:44.614Z,55.85
2018-05-26T01:31:18.403Z,55.95
2018-05-26T01:33:52.120Z,55.94
2018-05-26T01:36:28.029Z,55.92
2018-05-26T01:39:06.326Z,55.79
2018-05-26T01:41:37.877Z,55.79
2018-05-26T01:44:10.037Z,56.33
2018-05-26T01:46:41.428Z,56.37
2018-05-26T01:49:17.549Z,56.28
2018-05-26T01:51:48.630Z,56.42
2018-05-26T01:54:20.879Z,57.06
2018-05-26T01:56:52.097Z,57.14
2018-05-26T01:59:24.302Z,57.24
2018-05-26T02:01:55.095Z,56.90
2018-05-26T02:04:25.578Z,56.81
2018-05-26T02:06:55.963Z,57.05
2018-05-26T02:09:28.629Z,57.70
2018-05-26T02:12:01.817Z,57.35
2018-05-26T02:14:43.299Z,57.47
2018-05-26T02:17:18.459Z,57.38
2018-05-26T02:19:49.764Z,57.26
2018-05-26T02:22:20.447Z,57.20
2018-05-26T02:24:51.210Z,57.30
2018-05-26T02:27:21.874Z,57.57
2018-05-26T02:29:55.737Z,57.81
2018-05-26T02:32:26.460Z,57.92
2018-05-26T02:34:56.826Z,57.99
2018-05-26T02:37:28.801Z,57.90
2018-05-26T02:40:07.086Z,57.93
2018-05-26T02:42:39.168Z,58.12
2018-05-26T02:45:09.897Z,58.31
2018-05-26T02:47:47.316Z,58.60
2018-05-26T02:50:19.216Z,58.41
2018-05-26T02:52:52.618Z,58.53
2018-05-26T02:55:25.197Z,59.11
2018-05-26T02:57:57.267Z,59.45
2018-05-26T03:00:29.005Z,59.53
2018-05-26T03:03:05.673Z,59.37
2018-05-26T03:05:41.733Z,59.39
2018-05-26T03:08:17.286Z,59.38
2018-05-26T03:10:53.324Z,59.58
2018-05-26T03:13:28.953Z,59.66
2018-05-26T03:16:00.435Z,59.91
2018-05-26T03:18:32.701Z,59.61
2018-05-26T03:21:05.243Z,59.74
2018-05-26T03:23:38.385Z,59.48
2018-05-26T03:26:09.301Z,59.20
2018-05-26T03:28:40.741Z,59.25
2018-05-26T03:31:12.211Z,59.79
2018-05-26T03:33:42.731Z,60.06
2018-05-26T03:36:17.554Z,60.54
2018-05-26T03:41:29.348Z,61.89
2018-05-26T03:43:59.741Z,61.59
2018-05-26T03:46:30.511Z,60.91
2018-05-26T03:49:01.291Z,60.44
2018-05-26T03:51:32.234Z,60.12
2018-05-26T03:54:02.596Z,60.00
2018-05-26T04:00:52.771Z,60.12
2018-05-26T04:03:23.503Z,60.77
2018-05-26T04:05:55.344Z,61.11
2018-05-26T04:08:26.424Z,61.13
2018-05-26T04:10:57.647Z,60.67
2018-05-26T04:13:28.210Z,60.22
2018-05-26T04:16:00.393Z,59.69
2018-05-26T04:18:35.824Z,59.45
2018-05-26T04:21:06.740Z,58.93
2018-05-26T04:23:41.402Z,58.53
2018-05-26T04:26:14.407Z,58.13
2018-05-26T04:28:46.722Z,57.87
2018-05-26T04:31:17.518Z,57.44
2018-05-26T04:33:48.160Z,57.05
2018-05-26T04:36:19.582Z,56.67
2018-05-26T04:38:50.123Z,56.11
2018-05-26T04:41:20.554Z,56.01
2018-05-26T04:43:54.497Z,56.09
2018-05-26T04:46:25.686Z,55.92
2018-05-26T04:48:58.491Z,55.28
2018-05-26T04:51:30.928Z,54.86
2018-05-26T04:54:04.949Z,54.53
2018-05-26T04:56:35.962Z,54.27
2018-05-26T04:59:07.524Z,53.95
2018-05-26T05:01:38.523Z,53.44
2018-05-26T05:04:09.072Z,52.91
2018-05-26T05:06:39.761Z,52.28
2018-05-26T05:09:12.724Z,51.68
2018-05-26T05:11:44.907Z,50.58
2018-05-26T05:14:15.379Z,51.10
2018-05-26T05:16:47.221Z,51.31
2018-05-26T05:19:17.988Z,51.17
2018-05-26T05:21:48.858Z,50.84
2018-05-26T05:24:19.195Z,49.72
2018-05-26T05:26:49.579Z,49.80
2018-05-26T05:29:20.139Z,48.50
2018-05-26T05:31:53.477Z,48.36
2018-05-26T05:34:24.929Z,48.24
2018-05-26T05:36:56.139Z,48.34
2018-05-26T05:39:26.761Z,47.21
2018-05-26T05:41:58.434Z,46.30
2018-05-26T05:44:28.960Z,44.94
2018-05-26T05:47:00.636Z,45.24
2018-05-26T05:49:33.446Z,45.41
2018-05-26T05:52:04.387Z,45.17
2018-05-26T05:54:34.869Z,44.58
2018-05-26T05:57:06.314Z,43.89
2018-05-26T05:59:36.786Z,43.47
2018-05-26T06:02:07.489Z,43.01
2018-05-26T06:04:38.521Z,42.77
2018-05-26T06:07:11.924Z,41.50
2018-05-26T06:09:43.423Z,41.65
2018-05-26T06:12:15.058Z,42.09
2018-05-26T06:17:26.997Z,40.59
2018-05-26T06:20:05.037Z,40.75
2018-05-26T06:22:36.840Z,39.51
2018-05-26T06:25:07.507Z,39.32
2018-05-26T06:27:38.305Z,39.58
2018-05-26T06:30:19.244Z,39.67
2018-05-26T06:33:01.132Z,40.18
2018-05-26T06:35:32.723Z,39.65
2018-05-26T06:38:26.208Z,39.27
2018-05-26T06:41:01.633Z,39.84
2018-05-26T06:43:33.113Z,39.72
2018-05-26T06:46:11.483Z,38.24
2018-05-26T06:48:44.721Z,38.81
2018-05-26T06:51:16.044Z,39.15
2018-05-26T06:53:47.865Z,38.49
2018-05-26T06:56:20.794Z,37.22
2018-05-26T06:58:52.017Z,36.51
2018-05-26T07:01:24.137Z,36.65
2018-05-26T07:03:55.290Z,36.45
2018-05-26T07:06:29.306Z,36.23
2018-05-26T07:09:01.746Z,35.30
2018-05-26T07:11:32.942Z,34.11
2018-05-26T07:14:03.597Z,33.52
2018-05-26T07:16:34.826Z,33.53
2018-05-26T07:19:10.262Z,34.75
2018-05-26T07:21:43.381Z,36.01
2018-05-26T07:24:17.569Z,35.68
2018-05-26T07:26:49.551Z,35.12
2018-05-26T07:29:24.611Z,36.02
2018-05-26T07:31:58.190Z,35.72
2018-05-26T07:34:30.361Z,36.33
2018-05-26T07:37:02.979Z,35.78
2018-05-26T07:39:34.462Z,35.98
2018-05-26T07:42:05.750Z,36.42
2018-05-26T07:44:36.702Z,36.22
2018-05-26T07:47:08.119Z,36.11
2018-05-26T07:49:38.687Z,35.34
2018-05-26T07:52:09.876Z,36.45
2018-05-26T07:54:42.516Z,36.08
2018-05-26T07:57:14.598Z,36.09
2018-05-26T07:59:46.220Z,35.49
2018-05-26T08:02:17.335Z,35.36
2018-05-26T08:05:04.701Z,35.72
2018-05-26T08:07:35.801Z,35.05
2018-05-26T08:10:16.870Z,34.83
2018-05-26T08:12:49.704Z,34.36
2018-05-26T08:15:23.877Z,34.59
2018-05-26T08:17:55.464Z,33.24
2018-05-26T08:20:30.089Z,34.48
2018-05-26T08:23:03.299Z,34.66
2018-05-26T08:25:34.102Z,34.43
2018-05-26T08:28:05.382Z,35.05
2018-05-26T08:30:41.149Z,34.19
2018-05-26T08:33:20.109Z,33.27
2018-05-26T08:35:51.768Z,32.15
2018-05-26T08:38:23.152Z,32.33
2018-05-26T08:40:54.768Z,31.33
2018-05-26T08:43:25.462Z,31.60
2018-05-26T08:46:03.317Z,31.50
2018-05-26T08:48:41.541Z,32.13
2018-05-26T08:51:15.059Z,31.92
2018-05-26T08:53:50.604Z,31.77
2018-05-26T08:56:25.756Z,30.92
2018-05-26T08:59:04.030Z,31.65
2018-05-26T09:01:37.142Z,31.77
2018-05-26T09:04:08.415Z,31.38
2018-05-26T09:06:39.343Z,31.05
2018-05-26T09:09:12.284Z,30.65
2018-05-26T09:11:45.136Z,31.20
2018-05-26T09:14:18.100Z,30.96
2018-05-26T09:16:55.556Z,30.67
2018-05-26T09:19:31.221Z,30.93
2018-05-26T09:22:02.408Z,31.41
2018-05-26T09:24:36.406Z,31.79
2018-05-26T09:27:22.722Z,30.79
2018-05-26T09:32:55.970Z,31.02
2018-05-26T09:35:27.759Z,30.65
2018-05-26T09:37:59.102Z,30.45
2018-05-26T09:40:33.483Z,30.42
2018-05-26T09:43:05.033Z,30.27
2018-05-26T09:45:43.140Z,29.48
2018-05-26T09:48:15.086Z,28.55
2018-05-26T09:50:47.505Z,27.77
2018-05-26T09:53:21.185Z,28.16
2018-05-26T09:56:08.911Z,27.83
2018-05-26T09:58:44.321Z,27.79
2018-05-26T10:01:21.184Z,27.85
2018-05-26T10:03:53.078Z,27.24
2018-05-26T10:06:27.015Z,26.59
2018-05-26T10:09:14.158Z,26.70
2018-05-26T10:11:44.977Z,28.36
2018-05-26T10:14:17.708Z,27.34
2018-05-26T10:16:54.047Z,27.88
2018-05-26T10:19:30.106Z,26.51
2018-05-26T10:22:00.716Z,25.97
2018-05-26T10:24:32.017Z,25.94
2018-05-26T10:27:04.897Z,26.41
2018-05-26T10:29:37.475Z,25.84
2018-05-26T10:32:13.691Z,26.19
2018-05-26T10:35:01.689Z,25.74
2018-05-26T10:37:34.255Z,27.31
2018-05-26T10:40:08.949Z,26.78
2018-05-26T10:42:42.024Z,26.34
2018-05-26T10:45:15.991Z,25.29
2018-05-26T10:48:02.583Z,25.23
2018-05-26T10:50:41.023Z,26.79
2018-05-26T10:53:11.912Z,26.19
2018-05-26T10:55:53.849Z,25.47
2018-05-26T10:58:26.383Z,25.52
2018-05-26T11:03:46.995Z,24.84
2018-05-26T11:06:22.695Z,23.45
2018-05-26T11:08:55.599Z,23.94
2018-05-26T11:11:26.527Z,23.64
2018-05-26T11:13:57.379Z,23.81
2018-05-26T11:16:29.491Z,24.52
2018-05-26T11:21:40.026Z,23.99
2018-05-26T11:24:10.975Z,23.42
2018-05-26T11:26:46.866Z,22.91
2018-05-26T11:29:18.694Z,21.82
2018-05-26T11:31:56.768Z,22.27
2018-05-26T11:34:29.367Z,22.57
2018-05-26T11:37:01.856Z,23.50
2018-05-26T11:39:38.974Z,22.51
2018-05-26T11:42:10.599Z,22.49
2018-05-26T11:44:41.343Z,21.94
2018-05-26T11:47:14.808Z,21.68
2018-05-26T11:49:47.337Z,21.16
2018-05-26T11:52:19.087Z,21.11
2018-05-26T11:54:49.894Z,21.28
2018-05-26T11:57:20.835Z,20.76
2018-05-26T11:59:55.926Z,21.11
2018-05-26T12:02:27.272Z,21.31
2018-05-26T12:04:58.883Z,20.73
2018-05-26T12:07:32.608Z,20.03
2018-05-26T12:10:04.752Z,20.09
2018-05-26T12:12:37.230Z,19.81
2018-05-26T12:15:16.777Z,19.28
2018-05-26T12:17:52.734Z,19.20
2018-05-26T12:20:23.627Z,20.32
2018-05-26T12:22:55.127Z,20.82
2018-05-26T12:25:27.081Z,20.82
2018-05-26T12:28:14.878Z,21.53
2018-05-26T12:30:46.818Z,21.75
2018-05-26T12:33:22.194Z,21.04
2018-05-26T12:35:53.836Z,21.51
2018-05-26T12:38:25.152Z,21.71
2018-05-26T12:41:15.514Z,21.52
2018-05-26T12:43:47.776Z,21.79
2018-05-26T12:46:21.653Z,22.82
2018-05-26T12:49:01.342Z,22.42
2018-05-26T12:51:32.723Z,21.33
2018-05-26T12:54:08.452Z,19.59
2018-05-26T12:56:45.815Z,20.29
2018-05-26T12:59:23.019Z,20.27
2018-05-26T13:01:58.477Z,20.91
2018-05-26T13:04:43.227Z,21.66
2018-05-26T13:07:16.782Z,20.94
2018-05-26T13:09:52.881Z,19.64
2018-05-26T13:15:12.765Z,19.02
2018-05-26T13:17:44.357Z,18.81
2018-05-26T13:20:15.691Z,19.21
2018-05-26T13:22:46.970Z,19.85
2018-05-26T13:25:17.398Z,20.40
2018-05-26T13:27:47.873Z,19.98
2018-05-26T13:30:20.616Z,20.16
2018-05-26T13:32:54.422Z,19.96
2018-05-26T13:35:26.442Z,19.12
2018-05-26T13:38:01.405Z,18.79
2018-05-26T13:40:32.982Z,19.02
2018-05-26T13:43:05.180Z,18.84
2018-05-26T13:45:35.920Z,20.19
2018-05-26T13:48:12.151Z,21.08
2018-05-26T13:50:52.046Z,21.94
2018-05-26T13:53:30.251Z,22.34
2018-05-26T13:56:02.376Z,21.52
2018-05-26T13:58:34.198Z,20.34
2018-05-26T14:01:08.460Z,20.02
2018-05-26T14:03:39.936Z,21.45
2018-05-26T14:06:20.315Z,20.81
2018-05-26T14:08:52.461Z,20.03
2018-05-26T14:11:23.280Z,19.05
2018-05-26T14:13:53.886Z,18.89
2018-05-26T14:16:25.260Z,18.30
2018-05-26T14:19:22.779Z,18.26
2018-05-26T14:21:54.345Z,18.79
2018-05-26T14:24:25.226Z,18.44
2018-05-26T14:26:56.744Z,18.94
2018-05-26T14:29:31.597Z,18.28
2018-05-26T14:32:03.072Z,18.39
2018-05-26T14:34:33.529Z,18.60
2018-05-26T14:37:09.881Z,19.20
2018-05-26T14:39:40.942Z,19.53
2018-05-26T14:42:16.142Z,19.99
2018-05-26T14:44:48.422Z,20.03
2018-05-26T14:47:20.220Z,19.87
2018-05-26T14:49:54.811Z,20.41
2018-05-26T14:52:29.445Z,20.51
2018-05-26T14:55:00.216Z,20.69
2018-05-26T15:00:10.296Z,20.99
2018-05-26T15:02:47.492Z,21.20
2018-05-26T15:05:19.153Z,21.80
2018-05-26T15:07:50.373Z,21.90
2018-05-26T15:10:20.786Z,21.91
2018-05-26T15:12:51.953Z,21.78
2018-05-26T15:15:22.683Z,21.64
2018-05-26T15:17:54.313Z,21.61
2018-05-26T15:20:26.058Z,21.72
2018-05-26T15:22:56.830Z,21.42
2018-05-26T15:25:31.147Z,21.50
2018-05-26T15:28:03.027Z,21.40
2018-05-26T15:30:35.042Z,21.74
2018-05-26T15:33:06.490Z,21.95
2018-05-26T15:35:39.313Z,22.61
2018-05-26T15:40:55.645Z,22.71
2018-05-26T15:43:27.076Z,22.78
2018-05-26T15:45:58.414Z,22.76
2018-05-26T15:48:31.879Z,22.42
2018-05-26T15:51:03.286Z,22.59
2018-05-26T15:53:34.017Z,22.57
2018-05-26T15:56:05.272Z,23.22
2018-05-26T15:58:37.150Z,23.72
2018-05-26T16:01:08.884Z,23.71
2018-05-26T16:03:39.370Z,23.65
2018-05-26T16:06:15.208Z,23.61
2018-05-26T16:08:47.413Z,23.62
2018-05-26T16:11:22.150Z,23.61
2018-05-26T16:13:53.941Z,23.33
2018-05-26T16:16:25.352Z,23.19
2018-05-26T16:18:58.026Z,23.44
2018-05-26T16:21:28.855Z,23.13
2018-05-26T16:24:00.008Z,22.85
2018-05-26T16:26:33.206Z,22.90
2018-05-26T16:29:06.086Z,22.68
2018-05-26T16:31:37.366Z,22.94
2018-05-26T16:34:12.978Z,23.17
2018-05-26T16:36:45.141Z,22.92
2018-05-26T16:39:17.818Z,23.00
2018-05-26T16:41:50.522Z,24.07
2018-05-26T16:44:20.894Z,24.46
2018-05-26T16:46:52.552Z,24.58
2018-05-26T16:49:24.708Z,24.70
2018-05-26T16:52:01.998Z,24.63
2018-05-26T16:54:36.552Z,24.40
2018-05-26T16:57:20.013Z,24.33
2018-05-26T16:59:50.758Z,24.85
2018-05-26T17:02:23.210Z,24.82
2018-05-26T17:04:56.612Z,25.22
2018-05-26T17:07:28.848Z,25.79
2018-05-26T17:12:42.508Z,27.05
2018-05-26T17:15:23.233Z,27.48
2018-05-26T17:17:55.027Z,27.65
2018-05-26T17:20:27.352Z,27.89
2018-05-26T17:23:03.375Z,27.96
2018-05-26T17:25:34.509Z,28.36
2018-05-26T17:28:06.013Z,28.22
2018-05-26T17:30:39.572Z,28.60
2018-05-26T17:33:11.320Z,28.57
2018-05-26T17:35:43.221Z,28.03
2018-05-26T17:38:15.221Z,27.98
2018-05-26T17:40:48.047Z,27.96
2018-05-26T17:43:21.292Z,27.99
2018-05-26T17:45:51.918Z,28.46
2018-05-26T17:48:30.784Z,28.32
2018-05-26T17:51:02.837Z,28.24
2018-05-26T17:53:36.671Z,28.06
2018-05-26T17:56:12.319Z,28.15
2018-05-26T17:58:44.447Z,28.13
2018-05-26T18:01:29.308Z,28.39
2018-05-26T18:04:04.701Z,29.07
2018-05-26T18:06:51.569Z,29.35
2018-05-26T18:09:30.130Z,29.78
2018-05-26T18:12:02.582Z,29.87
2018-05-26T18:14:37.170Z,29.88
2018-05-26T18:17:08.830Z,30.02
2018-05-26T18:19:41.407Z,30.45
2018-05-26T18:22:13.273Z,30.73
2018-05-26T18:24:44.043Z,30.99
2018-05-26T18:27:15.295Z,31.07
2018-05-26T18:29:48.031Z,31.37
2018-05-26T18:32:20.553Z,31.42
2018-05-26T18:34:51.088Z,31.66
2018-05-26T18:37:25.725Z,31.64
2018-05-26T18:39:56.212Z,31.46
2018-05-26T18:42:26.903Z,31.84
2018-05-26T18:45:03.427Z,32.09
2018-05-26T18:47:53.386Z,32.24
2018-05-26T18:50:25.509Z,32.26
2018-05-26T18:52:59.623Z,32.42
2018-05-26T18:55:32.123Z,32.62
2018-05-26T18:58:03.438Z,32.56
2018-05-26T19:00:35.804Z,32.63
2018-05-26T19:03:08.132Z,32.64
2018-05-26T19:05:40.685Z,32.81
2018-05-26T19:08:27.816Z,33.05
2018-05-26T19:11:01.649Z,33.01
2018-05-26T19:13:32.259Z,33.06
2018-05-26T19:16:05.161Z,33.14
2018-05-26T19:18:36.406Z,33.09
2018-05-26T19:21:07.029Z,33.14
2018-05-26T19:23:37.936Z,33.25
2018-05-26T19:26:09.179Z,33.34
2018-05-26T19:28:40.287Z,33.53
2018-05-26T19:31:12.872Z,33.74
2018-05-26T19:33:59.475Z,33.95
2018-05-26T19:36:30.357Z,34.13
2018-05-26T19:39:03.589Z,34.32
2018-05-26T19:41:38.143Z,34.44
2018-05-26T19:44:13.076Z,34.48
2018-05-26T19:46:44.746Z,34.55
2018-05-26T19:49:18.459Z,34.47
2018-05-26T19:51:51.246Z,34.61
2018-05-26T19:54:26.149Z,34.47
2018-05-26T19:56:57.789Z,34.44
2018-05-26T19:59:31.730Z,34.54
2018-05-26T20:02:02.999Z,34.64
2018-05-26T20:04:34.804Z,34.63
2018-05-26T20:07:07.546Z,34.60
2018-05-26T20:09:41.757Z,34.60
2018-05-26T20:12:15.865Z,34.59
2018-05-26T20:14:53.560Z,34.71
2018-05-26T20:17:27.956Z,34.76
2018-05-26T20:19:59.527Z,34.62
2018-05-26T20:22:30.659Z,34.80
2018-05-26T20:25:05.503Z,34.95
2018-05-26T20:27:38.265Z,35.09
2018-05-26T20:30:15.500Z,35.05
2018-05-26T20:32:53.429Z,35.19
2018-05-26T20:35:36.884Z,35.27
2018-05-26T20:38:21.952Z,35.56
2018-05-26T20:41:01.097Z,35.48
2018-05-26T20:43:35.906Z,35.63
2018-05-26T20:49:05.879Z,36.14
2018-05-26T20:51:37.521Z,36.29
2018-05-26T20:54:08.971Z,36.25
2018-05-26T20:56:39.874Z,36.21
2018-05-26T20:59:10.771Z,36.18
2018-05-26T21:01:50.727Z,36.25
2018-05-26T21:04:31.695Z,36.34
2018-05-26T21:07:03.680Z,36.55
2018-05-26T21:09:34.706Z,36.65
2018-05-26T21:12:05.821Z,36.75
2018-05-26T21:14:37.557Z,36.87
2018-05-26T21:17:09.936Z,37.29
2018-05-26T21:19:42.816Z,37.44
2018-05-26T21:22:21.715Z,37.74
2018-05-26T21:24:52.479Z,38.02
2018-05-26T21:27:25.209Z,38.40
2018-05-26T21:29:55.675Z,38.63
2018-05-26T21:32:39.876Z,38.22
2018-05-26T21:35:11.931Z,38.39
2018-05-26T21:37:43.286Z,38.90
2018-05-26T21:40:14.502Z,38.72
2018-05-26T21:42:55.916Z,38.66
2018-05-26T21:45:31.775Z,38.88
2018-05-26T21:48:03.662Z,39.17
2018-05-26T21:50:35.226Z,39.52
2018-05-26T21:53:07.535Z,39.70
2018-05-26T21:55:40.211Z,39.82
2018-05-26T21:58:14.030Z,39.74
2018-05-26T22:00:56.095Z,39.89
2018-05-26T22:03:34.691Z,39.87
2018-05-26T22:06:05.428Z,39.91
2018-05-26T22:08:40.207Z,40.33
2018-05-26T22:11:12.130Z,40.47
2018-05-26T22:13:56.946Z,40.67
2018-05-26T22:16:29.555Z,40.89
2018-05-26T22:19:01.944Z,41.01
2018-05-26T22:21:35.439Z,41.00
2018-05-26T22:24:09.845Z,41.08
2018-05-26T22:26:43.863Z,41.13
2018-05-26T22:29:16.675Z,41.31
2018-05-26T22:31:50.983Z,41.35
2018-05-26T22:34:22.553Z,41.32
2018-05-26T22:36:55.772Z,41.21
2018-05-26T22:39:27.267Z,41.17
2018-05-26T22:41:57.966Z,41.34
2018-05-26T22:44:33.135Z,41.23
2018-05-26T22:47:04.321Z,40.94
2018-05-26T22:49:35.375Z,40.95
2018-05-26T22:52:06.383Z,40.79
2018-05-26T22:54:37.866Z,40.85
2018-05-26T22:57:09.256Z,41.34
2018-05-26T22:59:40.906Z,41.62
2018-05-26T23:02:12.715Z,41.95
2018-05-26T23:04:43.514Z,42.08
2018-05-26T23:07:15.905Z,42.25
2018-05-26T23:09:47.155Z,42.39
2018-05-26T23:12:21.856Z,42.13
2018-05-26T23:14:53.434Z,42.27
2018-05-26T23:17:29.770Z,42.33
2018-05-26T23:20:12.496Z,42.41
2018-05-26T23:22:44.419Z,42.64
2018-05-26T23:25:15.463Z,42.76
2018-05-26T23:27:49.082Z,43.21
2018-05-26T23:30:19.748Z,42.95
2018-05-26T23:32:51.267Z,42.92
2018-05-26T23:35:48.194Z,43.21
2018-05-26T23:38:19.519Z,43.31
2018-05-26T23:40:51.472Z,43.41
2018-05-26T23:43:22.265Z,43.21
2018-05-26T23:46:04.654Z,43.38
2018-05-26T23:48:36.073Z,43.39
2018-05-26T23:51:07.346Z,43.60
2018-05-26T23:53:38.202Z,43.63
2018-05-26T23:56:10.554Z,43.95
2018-05-26T23:58:41.452Z,43.84
